Time;durP1;ratioP1;P1;durP2;ratioP2;P2;SDS_P1;SDS_P2;PMS_P1;PMS_P2;Temp;Humidity;BMP_temperature;BMP_pressure;BME280_temperature;BME280_humidity;BME280_pressure;Samples;Min_cycle;Max_cycle;Signal;HPM_P1;HPM_P2
2024/04/13 00:01:45;;;;;;;1.52;1.00;;;18.20;65.90;;;;;;6543525;21;20532;-85
2024/04/13 00:04:11;;;;;;;1.88;1.10;;;18.20;64.90;;;;;;6456770;21;20216;-85
2024/04/13 00:06:39;;;;;;;3.65;1.38;;;18.20;65.80;;;;;;6543784;21;20212;-85
2024/04/13 00:09:04;;;;;;;1.58;0.93;;;18.20;65.00;;;;;;6499579;21;20212;-85
2024/04/13 00:11:32;;;;;;;2.85;1.27;;;18.20;64.90;;;;;;6500479;21;20216;-85
2024/04/13 00:13:58;;;;;;;2.05;1.20;;;18.10;64.90;;;;;;6457080;21;20262;-84
2024/04/13 00:16:23;;;;;;;1.20;0.90;;;18.20;65.00;;;;;;6587054;21;20211;-85
2024/04/13 00:18:49;;;;;;;2.67;1.30;;;18.10;65.00;;;;;;6543357;21;20220;-84
2024/04/13 00:21:15;;;;;;;1.50;0.93;;;18.20;65.10;;;;;;6543210;21;20216;-85
2024/04/13 00:23:42;;;;;;;1.33;1.10;;;18.10;65.10;;;;;;6500491;21;20259;-85
2024/04/13 00:26:08;;;;;;;1.45;0.90;;;18.10;65.20;;;;;;6501408;21;20231;-85
2024/04/13 00:28:34;;;;;;;1.80;1.02;;;18.10;65.20;;;;;;6543489;21;20255;-85
2024/04/13 00:31:00;;;;;;;1.30;1.00;;;18.20;65.10;;;;;;6543340;21;20878;-85
2024/04/13 00:33:29;;;;;;;1.80;1.08;;;18.10;65.10;;;;;;6499825;21;20707;-85
2024/04/13 00:35:59;;;;;;;2.67;1.40;;;18.00;65.00;;;;;;6499402;21;20217;-85
2024/04/13 00:38:26;;;;;;;1.33;0.90;;;18.20;65.10;;;;;;6546209;21;20208;-85
2024/04/13 00:40:53;;;;;;;1.27;1.00;;;18.10;65.00;;;;;;6500897;21;20246;-84
2024/04/13 00:43:19;;;;;;;1.60;1.20;;;18.10;65.00;;;;;;6500846;21;20216;-85
2024/04/13 00:45:45;;;;;;;2.13;1.10;;;18.10;65.00;;;;;;6632704;21;20224;-85
2024/04/13 00:48:12;;;;;;;1.50;1.10;;;18.10;64.90;;;;;;6633084;21;20707;-85
2024/04/13 00:50:40;;;;;;;1.52;0.90;;;18.10;65.00;;;;;;6543620;21;20216;-84
2024/04/13 00:53:09;;;;;;;1.50;1.17;;;18.10;64.90;;;;;;6501205;21;20220;-85
2024/04/13 00:55:35;;;;;;;2.55;1.25;;;18.20;65.90;;;;;;6500385;21;20216;-85
2024/04/13 00:58:01;;;;;;;1.65;1.08;;;18.10;65.10;;;;;;6543862;21;20212;-85
2024/04/13 01:00:27;;;;;;;1.70;1.08;;;18.10;65.00;;;;;;6543471;21;20255;-85
2024/04/13 01:02:54;;;;;;;2.47;1.13;;;18.10;65.00;;;;;;6500204;21;20224;-85
2024/04/13 01:05:20;;;;;;;1.50;0.98;;;18.10;64.90;;;;;;6587227;21;20247;-85
2024/04/13 01:07:46;;;;;;;2.75;1.40;;;18.20;65.00;;;;;;6543103;21;20215;-85
2024/04/13 01:10:16;;;;;;;1.08;0.90;;;18.20;65.00;;;;;;6542826;21;20220;-85
2024/04/13 01:12:43;;;;;;;2.17;1.20;;;18.10;65.00;;;;;;6502330;21;20255;-85
2024/04/13 01:15:09;;;;;;;1.80;1.10;;;18.10;65.10;;;;;;6500163;21;20321;-85
2024/04/13 01:17:37;;;;;;;2.00;1.08;;;18.10;65.00;;;;;;6543497;21;20216;-84
2024/04/13 01:20:06;;;;;;;2.55;1.27;;;18.20;65.10;;;;;;6502130;21;20246;-84
2024/04/13 01:22:32;;;;;;;1.75;0.90;;;18.10;65.20;;;;;;6544349;21;20251;-85
2024/04/13 01:24:58;;;;;;;2.00;1.20;;;18.10;65.20;;;;;;6500597;21;20219;-85
2024/04/13 01:27:24;;;;;;;1.67;1.25;;;18.10;65.40;;;;;;6499893;21;20508;-85
2024/04/13 01:29:50;;;;;;;2.10;1.08;;;18.10;65.30;;;;;;6543272;21;20773;-85
2024/04/13 01:32:16;;;;;;;1.88;1.05;;;18.00;65.40;;;;;;6542974;21;20761;-85
2024/04/13 01:34:42;;;;;;;2.75;1.05;;;18.10;65.40;;;;;;6543130;21;20208;-84
2024/04/13 01:37:10;;;;;;;1.17;0.80;;;18.00;65.50;;;;;;6543369;21;20557;-85
2024/04/13 01:39:36;;;;;;;2.30;1.30;;;18.00;65.40;;;;;;6543658;21;20283;-85
2024/04/13 01:42:02;;;;;;;1.75;1.02;;;18.10;65.50;;;;;;6499744;21;20525;-85
2024/04/13 01:44:30;;;;;;;0.90;0.82;;;18.00;65.20;;;;;;6632761;21;20511;-84
2024/04/13 01:47:00;;;;;;;1.85;1.25;;;18.10;65.40;;;;;;6502495;21;20228;-84
2024/04/13 01:49:26;;;;;;;2.70;1.33;;;18.10;65.20;;;;;;6547447;21;20259;-85
2024/04/13 01:51:52;;;;;;;2.35;1.30;;;18.10;65.20;;;;;;6588734;21;20224;-85
2024/04/13 01:54:18;;;;;;;2.20;1.02;;;18.10;65.20;;;;;;6543895;21;20310;-85
2024/04/13 01:56:44;;;;;;;2.55;1.20;;;18.10;65.20;;;;;;6588823;21;20255;-85
2024/04/13 01:59:10;;;;;;;1.05;0.90;;;18.10;65.10;;;;;;6544563;21;20593;-85
2024/04/13 02:01:36;;;;;;;1.92;1.17;;;18.00;65.30;;;;;;6545296;21;20212;-84
2024/04/13 02:04:03;;;;;;;1.92;1.08;;;18.00;65.20;;;;;;6544768;21;20232;-85
2024/04/13 02:06:30;;;;;;;1.17;0.98;;;18.10;65.10;;;;;;6544896;21;20216;-85
2024/04/13 02:08:56;;;;;;;1.38;0.90;;;18.10;65.30;;;;;;6588244;21;20228;-85
2024/04/13 02:11:22;;;;;;;1.73;1.00;;;18.00;65.40;;;;;;6544792;21;20317;-85
2024/04/13 02:13:49;;;;;;;1.25;0.90;;;18.00;65.20;;;;;;6588420;21;20320;-84
2024/04/13 02:16:18;;;;;;;0.90;0.80;;;18.00;65.20;;;;;;6501459;21;20676;-85
2024/04/13 02:18:44;;;;;;;1.90;1.08;;;18.10;65.40;;;;;;6544667;21;20317;-85
2024/04/13 02:21:10;;;;;;;2.67;1.23;;;18.00;65.40;;;;;;6588349;21;20566;-84
2024/04/13 02:23:36;;;;;;;1.15;0.90;;;18.00;65.40;;;;;;6544910;21;20652;-85
2024/04/13 02:26:02;;;;;;;1.95;1.10;;;18.00;65.20;;;;;;6544876;21;20216;-84
2024/04/13 02:28:29;;;;;;;1.77;1.10;;;18.00;65.20;;;;;;6588253;21;20679;-85
2024/04/13 02:30:55;;;;;;;1.45;1.00;;;18.00;65.40;;;;;;6544451;21;20258;-85
2024/04/13 02:33:21;;;;;;;1.40;1.10;;;18.00;65.50;;;;;;6588446;21;20714;-85
2024/04/13 02:35:57;;;;;;;2.20;1.10;;;18.00;65.50;;;;;;6588617;21;20325;-85
2024/04/13 02:38:24;;;;;;;1.63;1.15;;;18.00;65.40;;;;;;6544630;21;20246;-85
2024/04/13 02:40:57;;;;;;;1.52;1.02;;;18.00;65.50;;;;;;6588361;21;20321;-85
2024/04/13 02:43:23;;;;;;;1.58;0.95;;;18.00;65.60;;;;;;6501496;21;20663;-84
2024/04/13 02:45:49;;;;;;;1.35;1.15;;;18.00;65.50;;;;;;6535564;21;20265;-85
2024/04/13 02:48:15;;;;;;;1.67;1.20;;;18.00;65.50;;;;;;6535630;21;20263;-85
2024/04/13 02:50:40;;;;;;;1.83;1.17;;;18.00;65.50;;;;;;6535667;21;20259;-85
2024/04/13 02:53:07;;;;;;;1.20;0.95;;;18.00;65.50;;;;;;6535738;21;20259;-85
2024/04/13 02:55:33;;;;;;;1.92;1.00;;;17.90;65.60;;;;;;6534682;21;20574;-85
2024/04/13 02:58:00;;;;;;;1.83;1.00;;;17.90;65.60;;;;;;6492306;21;20645;-84
2024/04/13 03:00:26;;;;;;;2.20;1.08;;;17.90;65.60;;;;;;6535733;21;20328;-85
2024/04/13 03:02:52;;;;;;;1.70;1.17;;;17.90;65.60;;;;;;6535362;21;20217;-85
2024/04/13 03:05:17;;;;;;;2.70;1.25;;;18.00;65.80;;;;;;6492597;21;20285;-85
2024/04/13 03:07:44;;;;;;;1.42;1.00;;;17.90;65.60;;;;;;6535422;21;20209;-85
2024/04/13 03:10:10;;;;;;;2.70;1.10;;;17.90;65.50;;;;;;6535421;21;20221;-85
2024/04/13 03:12:36;;;;;;;1.75;1.00;;;17.90;65.50;;;;;;6492361;21;20567;-85
2024/04/13 03:15:02;;;;;;;1.60;1.13;;;17.90;65.50;;;;;;6492363;21;20321;-84
2024/04/13 03:17:31;;;;;;;1.85;0.93;;;18.00;65.40;;;;;;6579049;21;20554;-84
2024/04/13 03:19:59;;;;;;;1.83;1.10;;;18.00;65.40;;;;;;6407540;21;20217;-84
2024/04/13 03:22:24;;;;;;;1.40;0.93;;;18.00;65.40;;;;;;6578730;21;20209;-85
2024/04/13 03:24:50;;;;;;;1.75;1.15;;;17.90;65.40;;;;;;6579083;21;20217;-84
2024/04/13 03:27:17;;;;;;;2.42;1.08;;;18.00;65.50;;;;;;6578754;21;20524;-85
2024/04/13 03:29:43;;;;;;;1.00;0.90;;;18.00;65.60;;;;;;6535366;21;20661;-85
2024/04/13 03:32:08;;;;;;;1.70;0.98;;;18.00;65.40;;;;;;6535086;21;20247;-85
2024/04/13 03:34:34;;;;;;;2.75;1.02;;;17.90;65.60;;;;;;6535326;21;20221;-85
2024/04/13 03:37:00;;;;;;;1.30;1.10;;;18.00;65.50;;;;;;6492086;21;21095;-85
2024/04/13 03:39:28;;;;;;;1.17;1.00;;;17.90;65.40;;;;;;6580539;21;20225;-85
2024/04/13 03:41:54;;;;;;;2.72;0.90;;;17.90;65.60;;;;;;6491988;21;21075;-85
2024/04/13 03:44:19;;;;;;;1.48;1.10;;;18.00;65.60;;;;;;6534686;21;20247;-84
2024/04/13 03:46:47;;;;;;;2.28;1.10;;;17.90;65.40;;;;;;6501015;21;21021;-85
2024/04/13 03:49:14;;;;;;;1.70;0.90;;;17.90;65.60;;;;;;6543609;21;20262;-85
2024/04/13 03:51:40;;;;;;;2.08;1.20;;;17.90;65.60;;;;;;6543500;21;20750;-85
2024/04/13 03:54:06;;;;;;;1.35;1.02;;;18.00;65.50;;;;;;6499964;21;20231;-84
2024/04/13 03:56:32;;;;;;;1.38;1.02;;;17.90;65.40;;;;;;6500875;21;20674;-84
2024/04/13 03:58:58;;;;;;;1.83;0.90;;;17.90;65.60;;;;;;6544566;21;20258;-86
2024/04/13 04:01:24;;;;;;;2.03;1.10;;;17.90;65.40;;;;;;6544256;21;20220;-85
2024/04/13 04:03:50;;;;;;;1.35;1.20;;;17.90;65.60;;;;;;6544329;21;20776;-85
2024/04/13 04:06:17;;;;;;;1.02;0.93;;;17.90;65.60;;;;;;6544294;21;20212;-84
2024/04/13 04:08:46;;;;;;;1.75;1.02;;;18.00;65.60;;;;;;6500459;21;20255;-84
2024/04/13 04:11:13;;;;;;;1.67;1.08;;;18.00;65.50;;;;;;6457900;21;20317;-86
2024/04/13 04:13:40;;;;;;;1.30;1.10;;;18.00;65.50;;;;;;6500542;21;20313;-85
2024/04/13 04:16:06;;;;;;;1.75;1.13;;;18.00;65.50;;;;;;6544026;21;20226;-85
2024/04/13 04:18:32;;;;;;;1.33;0.80;;;17.90;65.40;;;;;;6501640;21;20217;-85
2024/04/13 04:20:58;;;;;;;1.50;1.10;;;17.90;65.40;;;;;;6501125;21;20321;-86
2024/04/13 04:23:24;;;;;;;2.35;1.20;;;17.90;65.60;;;;;;6543964;21;20212;-85
2024/04/13 04:25:53;;;;;;;1.25;1.00;;;18.00;65.60;;;;;;6587483;21;20259;-84
2024/04/13 04:28:22;;;;;;;2.50;1.08;;;17.90;65.60;;;;;;6499506;21;20298;-85
2024/04/13 04:30:49;;;;;;;1.23;1.00;;;17.90;65.40;;;;;;6499474;21;20220;-84
2024/04/13 04:33:15;;;;;;;1.75;1.00;;;17.90;66.30;;;;;;6633672;21;20321;-84
2024/04/13 04:35:41;;;;;;;1.15;0.93;;;17.90;65.60;;;;;;6544234;21;20223;-84
2024/04/13 04:38:07;;;;;;;1.30;1.20;;;17.90;65.60;;;;;;6500825;21;20322;-85
2024/04/13 04:40:34;;;;;;;1.23;1.10;;;17.90;65.40;;;;;;6587306;21;20255;-84
2024/04/13 04:43:04;;;;;;;1.17;0.90;;;17.90;65.40;;;;;;6544706;21;20216;-84
2024/04/13 04:45:29;;;;;;;1.00;0.90;;;18.00;65.70;;;;;;6586397;21;20227;-84
2024/04/13 04:47:57;;;;;;;1.05;0.90;;;17.90;65.50;;;;;;6544415;21;20242;-85
2024/04/13 04:50:28;;;;;;;2.13;1.20;;;17.90;65.60;;;;;;6544077;21;20208;-84
2024/04/13 04:52:54;;;;;;;1.10;0.88;;;17.90;65.60;;;;;;6456333;21;20216;-85
2024/04/13 04:55:21;;;;;;;1.42;1.17;;;17.90;65.60;;;;;;6499768;21;20310;-84
2024/04/13 04:57:47;;;;;;;1.38;0.95;;;17.90;65.80;;;;;;6543484;21;20220;-84
2024/04/13 05:00:14;;;;;;;1.75;1.23;;;17.90;65.60;;;;;;6543568;21;20264;-85
2024/04/13 05:02:41;;;;;;;2.30;1.30;;;17.90;65.80;;;;;;6543359;21;20212;-85
2024/04/13 05:05:08;;;;;;;1.50;1.05;;;17.90;65.80;;;;;;6501040;21;20519;-85
2024/04/13 05:07:34;;;;;;;1.42;1.05;;;17.90;65.80;;;;;;6500628;21;20305;-85
2024/04/13 05:10:04;;;;;;;1.02;0.88;;;17.90;65.70;;;;;;6501614;21;20228;-85
2024/04/13 05:12:34;;;;;;;1.27;0.98;;;17.90;65.80;;;;;;6545154;21;20212;-85
2024/04/13 05:15:06;;;;;;;1.50;1.13;;;17.90;65.80;;;;;;6499652;21;20284;-85
2024/04/13 05:17:31;;;;;;;1.88;1.08;;;17.90;65.70;;;;;;6458250;21;20286;-85
2024/04/13 05:19:57;;;;;;;1.33;0.90;;;17.90;65.60;;;;;;6542516;21;20216;-85
2024/04/13 05:22:23;;;;;;;2.08;1.20;;;17.90;65.60;;;;;;6544913;21;20524;-85
2024/04/13 05:24:51;;;;;;;1.33;1.05;;;17.80;65.70;;;;;;6589776;21;20329;-85
2024/04/13 05:27:18;;;;;;;1.58;1.05;;;17.90;65.70;;;;;;6501109;21;20258;-85
2024/04/13 05:29:44;;;;;;;1.33;0.98;;;17.90;65.90;;;;;;6502376;21;20216;-85
2024/04/13 05:32:12;;;;;;;2.47;1.33;;;17.90;65.80;;;;;;6545543;21;20548;-86
2024/04/13 05:34:42;;;;;;;0.98;0.80;;;17.90;65.70;;;;;;6546419;21;20271;-85
2024/04/13 05:37:07;;;;;;;1.10;0.90;;;17.90;65.60;;;;;;6501765;21;20224;-86
2024/04/13 05:39:33;;;;;;;1.58;1.17;;;17.90;65.60;;;;;;6589617;21;20209;-84
2024/04/13 05:41:59;;;;;;;2.25;1.40;;;17.90;65.80;;;;;;6546427;21;20530;-85
2024/04/13 05:44:25;;;;;;;1.10;1.00;;;17.90;65.70;;;;;;6545993;21;20241;-84
2024/04/13 05:46:56;;;;;;;1.30;1.00;;;17.90;65.70;;;;;;6545696;21;20562;-85
2024/04/13 05:49:22;;;;;;;1.23;0.90;;;17.90;65.60;;;;;;6501727;21;20212;-85
2024/04/13 05:51:48;;;;;;;1.08;0.98;;;17.90;65.50;;;;;;6546178;21;20220;-84
2024/04/13 05:54:16;;;;;;;2.50;1.00;;;18.00;65.50;;;;;;6503158;21;20247;-84
2024/04/13 05:56:43;;;;;;;1.02;0.93;;;17.90;65.30;;;;;;6546038;21;20243;-85
2024/04/13 05:59:09;;;;;;;1.50;1.00;;;17.90;65.60;;;;;;6503137;21;20255;-85
2024/04/13 06:01:35;;;;;;;1.52;1.02;;;17.90;65.60;;;;;;6589456;21;20506;-85
2024/04/13 06:04:25;;;;;;;1.50;0.90;;;17.90;65.70;;;;;;6503027;21;20513;-85
2024/04/13 06:06:51;;;;;;;1.42;1.00;;;17.90;65.70;;;;;;6563982;21;20216;-84
2024/04/13 06:09:17;;;;;;;1.25;1.10;;;17.90;65.60;;;;;;6518073;21;20224;-84
2024/04/13 06:11:44;;;;;;;1.80;1.25;;;18.00;65.60;;;;;;6517368;21;20290;-85
2024/04/13 06:14:14;;;;;;;1.42;0.98;;;18.00;65.50;;;;;;6519016;21;20216;-84
2024/04/13 06:16:50;;;;;;;1.42;0.90;;;17.90;65.60;;;;;;6566798;21;20228;-84
2024/04/13 06:19:20;;;;;;;2.78;1.02;;;17.90;65.60;;;;;;6562781;21;20286;-84
2024/04/13 06:21:45;;;;;;;0.98;0.88;;;17.90;65.60;;;;;;6520832;21;20258;-83
2024/04/13 06:24:14;;;;;;;1.98;1.00;;;17.90;65.70;;;;;;6517777;21;20235;-84
2024/04/13 06:26:50;;;;;;;1.58;1.08;;;17.90;65.50;;;;;;6518175;21;20337;-83
2024/04/13 06:29:18;;;;;;;1.65;1.10;;;18.00;65.40;;;;;;6559897;21;20227;-82
2024/04/13 06:31:49;;;;;;;1.48;0.90;;;17.90;65.60;;;;;;6517094;21;20299;-83
2024/04/13 06:34:15;;;;;;;1.10;0.90;;;17.90;65.60;;;;;;6562804;21;20322;-85
2024/04/13 06:36:45;;;;;;;1.23;0.90;;;17.90;65.70;;;;;;6525669;21;20224;-84
2024/04/13 06:39:29;;;;;;;1.70;0.85;;;17.90;65.70;;;;;;6480267;21;20220;-85
2024/04/13 06:41:54;;;;;;;1.48;1.00;;;17.90;65.80;;;;;;6612346;21;20246;-86
2024/04/13 06:44:21;;;;;;;2.22;1.10;;;17.90;65.80;;;;;;6461332;22;20222;-86
2024/04/13 06:46:48;;;;;;;1.05;0.90;;;17.90;65.60;;;;;;6488734;22;20286;-88
2024/04/13 06:49:16;;;;;;;1.67;1.10;;;17.90;65.80;;;;;;6450524;22;20218;-82
2024/04/13 06:51:48;;;;;;;1.45;1.08;;;17.90;65.80;;;;;;6447333;22;20222;-84
2024/04/13 06:54:16;;;;;;;1.00;0.90;;;17.90;65.80;;;;;;6445501;22;20222;-83
2024/04/13 06:56:42;;;;;;;0.80;0.80;;;17.90;66.10;;;;;;6473971;22;20228;-84
2024/04/13 06:59:09;;;;;;;1.20;1.02;;;17.90;66.00;;;;;;6429933;22;20730;-82
2024/04/13 07:01:35;;;;;;;2.33;1.20;;;17.90;65.90;;;;;;6428564;22;20564;-84
2024/04/13 07:04:00;;;;;;;1.35;1.05;;;17.90;66.00;;;;;;6426352;22;20221;-84
2024/04/13 07:06:26;;;;;;;2.95;0.90;;;17.90;65.70;;;;;;6469040;22;20266;-82
2024/04/13 07:08:54;;;;;;;1.80;1.00;;;17.90;65.60;;;;;;6423830;22;20251;-83
2024/04/13 07:11:25;;;;;;;2.65;0.88;;;18.00;65.60;;;;;;6383110;22;20220;-84
2024/04/13 07:13:51;;;;;;;1.33;1.02;;;18.10;65.20;;;;;;6466479;22;20217;-84
2024/04/13 07:16:21;;;;;;;1.30;0.77;;;18.10;65.20;;;;;;6423904;22;20267;-83
2024/04/13 07:18:48;;;;;;;1.95;1.00;;;18.10;65.00;;;;;;6382506;22;20216;-82
2024/04/13 07:21:14;;;;;;;0.95;0.80;;;18.20;64.90;;;;;;6470199;22;20219;-83
2024/04/13 07:23:40;;;;;;;1.33;1.00;;;18.10;64.90;;;;;;6433700;22;20694;-84
2024/04/13 07:26:10;;;;;;;1.85;1.00;;;18.10;64.90;;;;;;6434125;22;20223;-83
2024/04/13 07:28:39;;;;;;;0.95;0.75;;;18.20;64.90;;;;;;6431891;22;20322;-81
2024/04/13 07:31:04;;;;;;;1.52;1.00;;;18.20;64.60;;;;;;6393085;22;20219;-84
2024/04/13 07:33:31;;;;;;;1.10;0.90;;;18.30;64.60;;;;;;6467019;21;20254;-85
2024/04/13 07:35:57;;;;;;;1.40;0.88;;;18.30;64.60;;;;;;6545529;21;20663;-82
2024/04/13 07:38:26;;;;;;;0.90;0.80;;;18.20;64.50;;;;;;6546567;21;20271;-84
2024/04/13 07:40:51;;;;;;;1.50;1.00;;;18.30;64.30;;;;;;6459329;21;20303;-84
2024/04/13 07:43:22;;;;;;;1.00;0.85;;;18.20;64.30;;;;;;6546133;21;20227;-83
2024/04/13 07:46:21;;;;;;;2.05;0.80;;;18.20;64.60;;;;;;6506257;21;20256;-86
2024/04/13 11:34:04;;;;;;;1.98;0.80;;;18.60;65.20;;;;;;6685904;21;20247;-87
2024/04/13 11:36:39;;;;;;;0.88;0.60;;;18.60;65.30;;;;;;6511861;21;20238;-87
2024/04/13 11:39:25;;;;;;;2.75;0.60;;;18.60;65.30;;;;;;6498336;21;20224;-88
2024/04/13 11:56:12;;;;;;;;;;;;;;;;;;;;;
2024/04/13 12:10:47;;;;;;;0.90;0.75;;;18.70;64.90;;;;;;6642307;21;20295;-88
2024/04/13 12:16:53;;;;;;;1.25;0.60;;;18.60;65.30;;;;;;6189778;23;20462;-86
2024/04/13 12:20:06;;;;;;;1.50;0.50;;;18.70;65.00;;;;;;6096113;23;20232;-84
2024/04/13 12:52:33;;;;;;;1.27;0.70;;;18.60;65.80;;;;;;6498947;21;1573900;-88
2024/04/13 12:55:24;;;;;;;0.77;0.60;;;18.60;65.80;;;;;;6513420;21;20264;-89
2024/04/13 12:57:57;;;;;;;0.63;0.60;;;18.60;65.80;;;;;;6553600;21;20221;-87
2024/04/13 13:00:43;;;;;;;1.08;0.40;;;18.60;65.80;;;;;;6460587;21;20218;-89
2024/04/13 13:03:26;;;;;;;1.00;0.65;;;18.60;65.70;;;;;;6506486;21;20205;-88
2024/04/13 13:05:57;;;;;;;0.57;0.50;;;18.60;65.60;;;;;;6500307;22;20222;-88
2024/04/13 13:08:29;;;;;;;0.50;0.50;;;18.60;65.40;;;;;;6415353;22;20221;-89
2024/04/13 13:11:00;;;;;;;2.15;0.60;;;18.70;65.40;;;;;;6413324;22;20222;-89
2024/04/13 13:13:30;;;;;;;0.63;0.60;;;18.60;65.60;;;;;;6455779;22;20217;-87
2024/04/13 13:16:09;;;;;;;1.30;0.50;;;18.60;65.60;;;;;;6423165;22;20213;-85
2024/04/13 13:19:09;;;;;;;0.57;0.57;;;18.60;65.40;;;;;;6365277;22;20213;-85
2024/04/13 13:21:46;;;;;;;0.65;0.60;;;18.60;65.40;;;;;;6322591;22;20593;-85
2024/04/13 13:24:43;;;;;;;;;;;;;;;;;;;;;
2024/04/13 13:27:17;;;;;;;0.60;0.50;;;18.60;65.30;;;;;;6231398;22;20223;-85
2024/04/13 13:29:59;;;;;;;1.00;0.60;;;18.60;65.00;;;;;;6303246;22;20644;-86
2024/04/13 13:32:32;;;;;;;0.50;0.50;;;18.70;65.10;;;;;;6260455;22;20569;-88
2024/04/13 13:35:12;;;;;;;0.45;0.45;;;18.70;65.20;;;;;;6217626;22;20252;-88
2024/04/13 13:37:38;;;;;;;2.25;0.45;;;18.60;65.50;;;;;;6252959;22;20261;-89
2024/04/13 13:40:06;;;;;;;1.48;0.50;;;18.70;65.00;;;;;;6214376;22;20222;-87
2024/04/13 13:42:34;;;;;;;0.82;0.50;;;18.70;65.10;;;;;;6214687;22;20776;-87
2024/04/13 13:45:00;;;;;;;0.70;0.70;;;18.70;64.80;;;;;;6255369;22;20561;-86
2024/04/13 13:47:26;;;;;;;0.63;0.60;;;18.70;65.00;;;;;;6214995;22;20222;-86
2024/04/13 13:50:17;;;;;;;0.40;0.40;;;18.70;64.60;;;;;;6220135;22;20218;-89
2024/04/13 13:53:00;;;;;;;0.60;0.60;;;18.70;64.80;;;;;;6243647;22;20239;-89
2024/04/13 13:56:17;;;;;;;;;;;;;;;;;;;;;
2024/04/13 13:58:46;;;;;;;0.60;0.45;;;18.70;65.00;;;;;;6299257;22;20233;-89
2024/04/13 14:01:15;;;;;;;0.55;0.52;;;18.60;64.40;;;;;;6332547;22;20703;-85
2024/04/13 14:04:02;;;;;;;1.02;0.57;;;18.70;65.00;;;;;;6386532;22;20305;-84
2024/04/13 14:06:57;;;;;;;0.57;0.52;;;18.60;64.90;;;;;;6393087;22;20216;-86
2024/04/13 14:09:32;;;;;;;0.73;0.55;;;18.70;64.80;;;;;;6306179;22;20270;-86
2024/04/13 14:12:01;;;;;;;0.55;0.50;;;18.70;64.40;;;;;;6252266;22;20302;-87
2024/04/13 14:14:41;;;;;;;0.50;0.50;;;18.70;64.50;;;;;;6297460;22;20311;-84
2024/04/13 14:17:16;;;;;;;0.50;0.50;;;18.70;64.80;;;;;;6299981;22;20222;-86
2024/04/13 14:53:59;;;;;;;2.55;0.50;;;18.70;63.90;;;;;;6388662;22;20305;-85
2024/04/13 14:56:25;;;;;;;1.58;0.60;;;18.80;63.90;;;;;;6285758;22;20231;-83
2024/04/13 14:58:51;;;;;;;3.17;0.88;;;18.80;63.80;;;;;;6285355;22;20325;-84
2024/04/13 15:01:18;;;;;;;2.63;0.68;;;18.80;64.00;;;;;;6285522;22;20726;-83
2024/04/13 15:03:45;;;;;;;5.45;0.95;;;18.70;63.80;;;;;;6286257;22;20218;-83
2024/04/13 15:06:12;;;;;;;6.50;0.98;;;18.70;63.90;;;;;;6246410;22;20227;-84
2024/04/13 15:08:38;;;;;;;6.55;1.08;;;18.80;64.10;;;;;;6285604;22;20218;-85
2024/04/13 15:11:04;;;;;;;6.80;1.83;;;18.80;63.50;;;;;;6245983;22;20416;-84
2024/04/13 15:13:30;;;;;;;7.30;1.02;;;18.80;63.50;;;;;;6397826;22;20326;-83
2024/04/13 15:15:55;;;;;;;7.47;0.98;;;18.80;63.70;;;;;;6393263;22;20220;-83
2024/04/13 15:18:21;;;;;;;4.70;0.90;;;18.80;63.40;;;;;;6392953;22;20223;-83
2024/04/13 15:20:50;;;;;;;4.18;0.70;;;18.80;63.20;;;;;;6392685;22;20219;-83
2024/04/13 15:23:16;;;;;;;6.43;0.98;;;18.80;63.20;;;;;;6434373;22;20263;-84
2024/04/13 15:25:42;;;;;;;7.05;0.90;;;18.80;63.70;;;;;;6434676;22;20252;-84
2024/04/13 15:28:08;;;;;;;4.28;1.00;;;18.70;63.50;;;;;;6437798;22;20261;-84
2024/04/13 15:30:34;;;;;;;6.32;1.25;;;18.80;63.80;;;;;;6436831;22;20663;-83
2024/04/13 15:33:00;;;;;;;6.85;1.02;;;18.80;63.60;;;;;;6395449;22;20271;-83
2024/04/13 15:35:26;;;;;;;9.73;1.40;;;18.80;63.40;;;;;;6393832;22;20246;-84
2024/04/13 15:37:52;;;;;;;10.65;1.10;;;18.80;64.30;;;;;;6391554;22;20652;-84
2024/04/13 15:40:19;;;;;;;5.63;1.27;;;18.70;64.20;;;;;;6392569;22;20519;-84
2024/04/13 15:42:45;;;;;;;6.25;0.90;;;18.70;64.10;;;;;;6392157;22;20523;-84
2024/04/13 15:45:11;;;;;;;5.65;1.25;;;18.70;63.60;;;;;;6475233;22;20223;-84
2024/04/13 15:47:39;;;;;;;7.15;0.88;;;18.70;63.80;;;;;;6475543;22;20714;-84
2024/04/13 15:50:05;;;;;;;7.60;1.13;;;18.70;64.00;;;;;;6391486;22;20626;-84
2024/04/13 15:52:32;;;;;;;5.53;0.90;;;18.80;63.70;;;;;;6475217;22;20214;-84
2024/04/13 15:54:58;;;;;;;7.07;1.00;;;18.70;63.80;;;;;;6390250;22;20235;-84
2024/04/13 15:57:25;;;;;;;6.85;1.00;;;18.70;63.60;;;;;;6474590;22;21080;-84
2024/04/13 15:59:53;;;;;;;6.97;0.95;;;18.70;63.60;;;;;;6475149;22;20266;-84
2024/04/13 16:02:21;;;;;;;4.75;1.00;;;18.70;63.40;;;;;;6433455;22;20223;-84
2024/04/13 16:04:50;;;;;;;4.30;0.82;;;18.80;63.60;;;;;;6475405;22;20219;-84
2024/04/13 16:07:16;;;;;;;4.05;0.80;;;18.70;63.50;;;;;;6475048;22;20271;-83
2024/04/13 16:09:42;;;;;;;3.95;1.00;;;18.70;63.10;;;;;;6475155;22;20285;-84
2024/04/13 16:12:09;;;;;;;7.50;0.70;;;18.70;63.40;;;;;;6432697;22;20331;-84
2024/04/13 16:14:36;;;;;;;6.70;0.82;;;18.70;63.10;;;;;;6432897;22;20262;-83
2024/04/13 16:17:02;;;;;;;4.72;1.20;;;18.70;63.40;;;;;;6475077;22;20227;-84
2024/04/13 16:19:29;;;;;;;6.20;0.90;;;18.70;63.10;;;;;;6475256;22;20323;-83
2024/04/13 16:21:55;;;;;;;4.28;0.88;;;18.70;63.10;;;;;;6475060;22;20274;-84
2024/04/13 16:24:21;;;;;;;6.75;0.65;;;18.80;63.50;;;;;;6475098;22;20291;-83
2024/04/13 16:26:47;;;;;;;5.00;0.88;;;18.70;63.40;;;;;;6474707;22;20648;-84
2024/04/13 16:29:14;;;;;;;3.03;0.80;;;18.70;63.40;;;;;;6432779;22;20223;-84
2024/04/13 16:31:40;;;;;;;6.32;0.70;;;18.70;62.90;;;;;;6475013;22;20215;-83
2024/04/13 16:34:09;;;;;;;2.60;0.90;;;18.70;63.10;;;;;;6474792;22;20671;-84
2024/04/13 16:36:35;;;;;;;3.05;0.95;;;18.70;63.30;;;;;;6432669;22;20249;-84
2024/04/13 16:39:01;;;;;;;4.47;1.00;;;18.70;63.40;;;;;;6475021;22;20530;-83
2024/04/13 16:41:26;;;;;;;1.45;0.80;;;18.70;63.40;;;;;;6432612;22;20250;-84
2024/04/13 16:43:52;;;;;;;7.93;1.25;;;18.70;63.50;;;;;;6474691;22;20330;-84
2024/04/13 16:46:19;;;;;;;2.15;1.10;;;18.70;62.90;;;;;;6431859;22;20530;-84
2024/04/13 16:48:47;;;;;;;3.42;0.77;;;18.70;63.00;;;;;;6474429;22;20219;-84
2024/04/13 16:51:14;;;;;;;3.30;1.00;;;18.70;62.70;;;;;;6432192;22;20242;-85
2024/04/13 16:53:40;;;;;;;3.63;0.80;;;18.70;63.30;;;;;;6474392;22;20261;-84
2024/04/13 16:56:08;;;;;;;3.38;0.80;;;18.70;62.90;;;;;;6473098;22;20227;-83
2024/04/13 16:58:34;;;;;;;3.33;0.88;;;18.70;63.20;;;;;;6476181;22;20287;-83
2024/04/13 17:01:00;;;;;;;3.80;0.80;;;18.70;63.10;;;;;;6432156;22;20223;-83
2024/04/13 17:03:25;;;;;;;2.95;0.80;;;18.70;63.10;;;;;;6474292;22;20559;-83
2024/04/13 17:05:53;;;;;;;2.42;0.70;;;18.60;63.00;;;;;;6431990;22;20249;-84
2024/04/13 17:08:19;;;;;;;2.05;0.60;;;18.70;63.30;;;;;;6474477;22;20265;-84
2024/04/13 17:10:46;;;;;;;1.73;0.70;;;18.70;63.10;;;;;;6474475;22;20219;-84
2024/04/13 17:13:12;;;;;;;4.15;0.73;;;18.60;62.90;;;;;;6432390;22;20318;-84
2024/04/13 17:15:37;;;;;;;1.58;0.88;;;18.60;63.20;;;;;;6432260;22;20695;-83
2024/04/13 17:18:04;;;;;;;2.45;0.90;;;18.60;63.10;;;;;;6432126;22;20226;-83
2024/04/13 17:20:30;;;;;;;4.82;0.85;;;18.60;62.80;;;;;;6432304;22;20250;-83
2024/04/13 17:22:56;;;;;;;3.78;1.05;;;18.60;63.00;;;;;;6432430;22;20227;-84
2024/04/13 17:25:22;;;;;;;1.85;0.90;;;18.70;63.00;;;;;;6433940;22;20674;-84
2024/04/13 17:27:48;;;;;;;3.42;0.82;;;18.60;63.00;;;;;;6476749;22;20215;-85
2024/04/13 17:30:15;;;;;;;5.57;1.05;;;18.60;63.10;;;;;;6434544;22;20266;-85
2024/04/13 17:32:41;;;;;;;2.65;0.80;;;18.60;63.10;;;;;;6434203;22;20677;-84
2024/04/13 17:35:07;;;;;;;4.45;0.85;;;18.60;63.00;;;;;;6434641;22;20227;-84
2024/04/13 17:37:33;;;;;;;4.25;1.10;;;18.60;62.80;;;;;;6476855;22;20579;-84
2024/04/13 17:39:59;;;;;;;1.83;0.80;;;18.50;63.00;;;;;;6434542;22;20219;-83
2024/04/13 17:42:27;;;;;;;1.75;0.70;;;18.60;62.70;;;;;;6434375;22;20309;-83
2024/04/13 17:44:53;;;;;;;1.88;0.77;;;18.60;63.00;;;;;;6434201;22;20267;-84
2024/04/13 17:47:18;;;;;;;1.67;0.70;;;18.60;63.00;;;;;;6434196;22;20258;-84
2024/04/13 17:49:45;;;;;;;3.17;1.00;;;18.60;62.60;;;;;;6433999;22;20231;-83
2024/04/13 17:52:11;;;;;;;2.58;1.00;;;18.60;63.20;;;;;;6434714;22;20249;-84
2024/04/13 17:54:37;;;;;;;4.03;0.77;;;18.60;63.40;;;;;;6475514;22;20675;-84
2024/04/13 17:57:02;;;;;;;0.85;0.68;;;18.50;63.10;;;;;;6476477;22;20326;-84
2024/04/13 17:59:28;;;;;;;3.22;1.00;;;18.50;62.90;;;;;;6476560;22;20220;-83
2024/04/13 18:01:54;;;;;;;4.00;1.10;;;18.60;62.70;;;;;;6433858;22;20250;-83
2024/04/13 18:04:20;;;;;;;4.65;1.00;;;18.60;62.30;;;;;;6476277;22;20550;-84
2024/04/13 18:06:46;;;;;;;2.42;0.80;;;18.60;62.60;;;;;;6476200;22;20706;-83
2024/04/13 18:09:12;;;;;;;0.70;0.70;;;18.60;62.10;;;;;;6478358;22;20219;-84
2024/04/13 18:11:39;;;;;;;1.63;0.80;;;18.60;62.70;;;;;;6434362;22;20246;-84
2024/04/13 18:14:04;;;;;;;1.85;0.90;;;18.60;62.90;;;;;;6476353;22;20219;-84
2024/04/13 18:16:32;;;;;;;0.95;0.60;;;18.60;63.00;;;;;;6433956;22;20536;-83